Time;durP1;ratioP1;P1;durP2;ratioP2;P2;SDS_P1;SDS_P2;PMS_P1;PMS_P2;Temp;Humidity;BMP_temperature;BMP_pressure;BME280_temperature;BME280_humidity;BME280_pressure;Samples;Min_cycle;Max_cycle;Signal;HPM_P1;HPM_P2
2021/06/27 00:00:31;;;;;;;;;;;;;;;19.73;58.96;101747.03;5135230;27;20006;-41
2021/06/27 00:02:57;;;;;;;;;;;;;;;19.69;59.14;101743.97;5135151;27;19908;-41
2021/06/27 00:05:23;;;;;;;;;;;;;;;19.65;59.36;101740.13;5134880;27;19914;-41
2021/06/27 00:07:50;;;;;;;;;;;;;;;19.63;59.49;101742.31;5135148;27;19930;-41
2021/06/27 00:10:17;;;;;;;;;;;;;;;19.62;59.32;101734.34;5135042;27;19908;-41
2021/06/27 00:12:42;;;;;;;;;;;;;;;19.56;59.85;101734.31;5134968;27;20407;-41
2021/06/27 00:15:11;;;;;;;;;;;;;;;19.50;60.85;101731.81;5135282;27;20009;-41
2021/06/27 00:17:36;;;;;;;;;;;;;;;19.44;60.29;101733.72;5134621;27;19907;-41
2021/06/27 00:20:04;;;;;;;;;;;;;;;19.42;60.11;101735.06;5134889;27;19992;-41
2021/06/27 00:22:29;;;;;;;;;;;;;;;19.35;60.91;101738.06;5134791;27;19907;-41
2021/06/27 00:24:54;;;;;;;;;;;;;;;19.32;61.88;101732.28;5135408;27;19907;-41
2021/06/27 00:27:20;;;;;;;;;;;;;;;19.28;60.87;101734.78;5134817;27;19907;-41
2021/06/27 00:29:45;;;;;;;;;;;;;;;19.24;61.84;101730.91;5135386;27;20027;-41
2021/06/27 00:32:10;;;;;;;;;;;;;;;19.20;62.59;101727.03;5134422;27;19911;-41
2021/06/27 00:34:36;;;;;;;;;;;;;;;19.16;61.97;101726.75;5134527;28;19907;-41
2021/06/27 00:37:01;;;;;;;;;;;;;;;19.16;62.52;101732.22;5137451;27;19914;-41
2021/06/27 00:39:26;;;;;;;;;;;;;;;19.12;63.41;101735.78;5141263;27;19921;-40
2021/06/27 00:41:51;;;;;;;;;;;;;;;19.09;62.15;101726.19;5141580;27;19913;-41
2021/06/27 00:44:21;;;;;;;;;;;;;;;19.11;62.03;101723.16;5141533;27;20010;-40
2021/06/27 00:46:53;;;;;;;;;;;;;;;19.10;62.17;101725.09;5142366;27;19907;-40
2021/06/27 00:49:18;;;;;;;;;;;;;;;19.08;61.80;101724.53;5141765;27;20006;-40
2021/06/27 00:51:44;;;;;;;;;;;;;;;19.08;61.62;101720.94;5141819;27;19921;-40
2021/06/27 00:54:09;;;;;;;;;;;;;;;19.07;63.40;101722.88;5141693;27;19922;-40
2021/06/27 00:56:34;;;;;;;;;;;;;;;18.98;64.68;101718.97;5141949;27;19907;-40
2021/06/27 00:58:59;;;;;;;;;;;;;;;18.94;63.21;101715.13;5141713;27;19908;-41
2021/06/27 01:01:25;;;;;;;;;;;;;;;18.91;64.11;101712.91;5141381;27;19914;-41
2021/06/27 01:03:50;;;;;;;;;;;;;;;18.85;65.31;101719.47;5141262;27;19907;-40
2021/06/27 01:06:15;;;;;;;;;;;;;;;18.80;65.49;101719.44;5141045;27;19952;-40
2021/06/27 01:08:40;;;;;;;;;;;;;;;18.77;65.03;101713.38;5140966;27;19956;-40
2021/06/27 01:11:06;;;;;;;;;;;;;;;18.72;65.21;101715.28;5141769;27;19960;-40
2021/06/27 01:13:33;;;;;;;;;;;;;;;18.71;64.96;101714.44;5141777;27;19909;-40
2021/06/27 01:15:58;;;;;;;;;;;;;;;18.69;66.84;101713.91;5141023;27;20354;-40
2021/06/27 01:18:23;;;;;;;;;;;;;;;18.69;65.59;101716.63;5141142;27;19918;-40
2021/06/27 01:20:49;;;;;;;;;;;;;;;18.66;65.66;101717.13;5141486;27;19907;-40
2021/06/27 01:23:16;;;;;;;;;;;;;;;18.69;65.13;101708.41;5141271;27;20266;-41
2021/06/27 01:25:43;;;;;;;;;;;;;;;18.67;66.50;101709.72;5141208;27;19907;-40
2021/06/27 01:28:09;;;;;;;;;;;;;;;18.62;66.83;101701.47;5141051;27;19944;-41
2021/06/27 01:30:35;;;;;;;;;;;;;;;18.58;66.85;101703.09;5141644;27;19961;-41
2021/06/27 01:33:02;;;;;;;;;;;;;;;18.58;65.37;101700.34;5141109;27;20372;-41
2021/06/27 01:35:28;;;;;;;;;;;;;;;18.58;67.49;101708.56;5141143;27;19908;-40
2021/06/27 01:37:54;;;;;;;;;;;;;;;18.56;67.06;101692.41;5141061;27;19911;-40
2021/06/27 01:40:21;;;;;;;;;;;;;;;18.51;68.53;101692.38;5139735;27;20327;-41
2021/06/27 01:42:47;;;;;;;;;;;;;;;18.44;68.56;101694.50;5141187;27;19911;-40
2021/06/27 01:45:14;;;;;;;;;;;;;;;18.42;66.70;101699.44;5141817;27;19976;-40
2021/06/27 01:47:41;;;;;;;;;;;;;;;18.43;67.32;101703.81;5140071;27;20005;-41
2021/06/27 01:50:07;;;;;;;;;;;;;;;18.42;66.68;101702.16;5136606;27;19947;-40
2021/06/27 01:52:33;;;;;;;;;;;;;;;18.36;67.99;101703.22;5138824;27;19962;-41
2021/06/27 01:54:59;;;;;;;;;;;;;;;18.32;67.49;101697.44;5138256;27;20262;-40
2021/06/27 01:57:24;;;;;;;;;;;;;;;18.32;66.61;101699.34;5137573;27;19911;-40
2021/06/27 01:59:49;;;;;;;;;;;;;;;18.34;68.49;101699.91;5138099;27;19913;-40
2021/06/27 02:02:16;;;;;;;;;;;;;;;18.31;68.04;101698.53;5137186;27;20013;-40
2021/06/27 02:04:41;;;;;;;;;;;;;;;18.32;68.28;101702.09;5138062;27;19930;-40
2021/06/27 02:07:06;;;;;;;;;;;;;;;18.28;67.41;101701.78;5138169;27;20327;-40
2021/06/27 02:09:32;;;;;;;;;;;;;;;18.26;68.44;101702.06;5137380;27;20009;-40
2021/06/27 02:11:57;;;;;;;;;;;;;;;18.25;67.68;101700.41;5136994;27;19969;-40
2021/06/27 02:14:22;;;;;;;;;;;;;;;18.26;67.25;101699.31;5137294;27;19907;-40
2021/06/27 02:16:49;;;;;;;;;;;;;;;18.27;67.27;101700.13;5137227;27;19907;-40
2021/06/27 02:19:14;;;;;;;;;;;;;;;18.21;68.01;101707.50;5137191;27;20283;-40
2021/06/27 02:21:39;;;;;;;;;;;;;;;18.21;67.87;101707.50;5137583;27;19914;-40
2021/06/27 02:24:05;;;;;;;;;;;;;;;18.14;70.91;101706.03;5136786;27;20247;-40
2021/06/27 02:26:30;;;;;;;;;;;;;;;18.06;71.21;101712.84;5136819;27;19938;-40
2021/06/27 02:28:59;;;;;;;;;;;;;;;18.05;71.33;101707.59;5137551;27;19915;-40
2021/06/27 02:31:26;;;;;;;;;;;;;;;18.05;71.05;101708.41;5137184;27;19908;-40
2021/06/27 02:33:51;;;;;;;;;;;;;;;17.98;71.19;101699.63;5136501;27;19936;-40
2021/06/27 02:36:16;;;;;;;;;;;;;;;17.98;70.81;101705.91;5137476;27;19908;-40
2021/06/27 02:38:42;;;;;;;;;;;;;;;18.00;71.22;101701.00;5136790;27;20271;-40
2021/06/27 02:41:08;;;;;;;;;;;;;;;18.02;70.31;101698.84;5137306;27;20250;-40
2021/06/27 02:43:33;;;;;;;;;;;;;;;18.06;69.20;101692.84;5136700;27;19922;-40
2021/06/27 02:45:59;;;;;;;;;;;;;;;18.10;68.82;101685.75;5136664;27;19986;-40
2021/06/27 02:48:24;;;;;;;;;;;;;;;18.07;71.07;101689.84;5136649;27;19907;-40
2021/06/27 02:50:49;;;;;;;;;;;;;;;18.07;70.49;101676.16;5136570;27;19915;-40
2021/06/27 02:53:14;;;;;;;;;;;;;;;18.04;70.26;101668.47;5137361;27;19911;-40
2021/06/27 02:55:40;;;;;;;;;;;;;;;18.03;69.55;101675.03;5137035;27;19914;-40
2021/06/27 02:58:05;;;;;;;;;;;;;;;17.99;71.46;101671.16;5136117;27;19907;-40
2021/06/27 03:00:31;;;;;;;;;;;;;;;17.99;69.41;101669.25;5136038;27;19913;-40
2021/06/27 03:02:57;;;;;;;;;;;;;;;18.01;69.92;101669.00;5136367;27;20329;-40
2021/06/27 03:05:23;;;;;;;;;;;;;;;17.98;69.92;101666.78;5136264;27;19907;-40
2021/06/27 03:07:48;;;;;;;;;;;;;;;17.96;69.42;101677.16;5136789;27;19950;-40
2021/06/27 03:10:14;;;;;;;;;;;;;;;17.94;69.39;101666.47;5135782;27;20003;-40
2021/06/27 03:12:41;;;;;;;;;;;;;;;17.91;70.80;101664.25;5135776;27;19908;-40
2021/06/27 03:15:07;;;;;;;;;;;;;;;17.92;69.42;101665.09;5136370;27;19907;-41
2021/06/27 03:17:32;;;;;;;;;;;;;;;17.90;69.86;101673.53;5136174;27;20282;-40
2021/06/27 03:19:57;;;;;;;;;;;;;;;17.84;70.81;101662.81;5136004;27;20397;-40
2021/06/27 03:22:23;;;;;;;;;;;;;;;17.81;70.14;101661.41;5135879;27;19911;-40
2021/06/27 03:24:48;;;;;;;;;;;;;;;17.72;72.00;101661.03;5135967;27;19908;-41
2021/06/27 03:27:13;;;;;;;;;;;;;;;17.73;70.61;101664.63;5135674;27;20389;-40
2021/06/27 03:29:38;;;;;;;;;;;;;;;17.67;72.68;101661.00;5136384;27;19916;-40
2021/06/27 03:32:04;;;;;;;;;;;;;;;17.65;71.06;101660.41;5135620;27;20232;-40
2021/06/27 03:34:29;;;;;;;;;;;;;;;17.67;72.07;101674.66;5136505;27;20400;-40
2021/06/27 03:36:54;;;;;;;;;;;;;;;17.69;71.96;101671.66;5135912;27;19913;-40
2021/06/27 03:39:21;;;;;;;;;;;;;;;17.70;71.89;101678.78;5135601;27;19907;-40
2021/06/27 03:41:50;;;;;;;;;;;;;;;17.66;71.36;101677.66;5135308;27;20467;-40
2021/06/27 03:44:15;;;;;;;;;;;;;;;17.66;72.90;101678.47;5135273;27;19960;-40
2021/06/27 03:46:41;;;;;;;;;;;;;;;17.63;71.74;101678.19;5135213;27;20304;-40
2021/06/27 03:49:06;;;;;;;;;;;;;;;17.65;71.47;101678.72;5135384;27;19907;-40
2021/06/27 03:51:31;;;;;;;;;;;;;;;17.63;72.80;101680.91;5135388;27;19911;-40
2021/06/27 03:53:56;;;;;;;;;;;;;;;17.63;71.50;101681.75;5135107;27;19958;-40
2021/06/27 03:56:22;;;;;;;;;;;;;;;17.66;71.95;101674.91;5135295;27;19907;-40
2021/06/27 03:58:49;;;;;;;;;;;;;;;17.66;71.64;101670.25;5135207;27;19907;-40
2021/06/27 04:01:15;;;;;;;;;;;;;;;17.70;72.00;101667.84;5135517;27;19907;-40
2021/06/27 04:03:41;;;;;;;;;;;;;;;17.70;72.77;101660.47;5134896;27;19907;-40
2021/06/27 04:06:06;;;;;;;;;;;;;;;17.70;72.48;101655.00;5135725;27;19907;-40
2021/06/27 04:08:31;;;;;;;;;;;;;;;17.64;74.13;101658.75;5135153;27;20297;-40
2021/06/27 04:10:58;;;;;;;;;;;;;;;17.67;72.39;101647.31;5135092;27;19915;-40
2021/06/27 04:13:27;;;;;;;;;;;;;;;17.69;73.86;101645.13;5134944;27;19911;-40
2021/06/27 04:15:53;;;;;;;;;;;;;;;17.61;74.42;101644.78;5135893;27;19911;-40
2021/06/27 04:18:18;;;;;;;;;;;;;;;17.61;74.25;101642.03;5135035;27;20407;-40
2021/06/27 04:20:43;;;;;;;;;;;;;;;17.65;74.29;101645.91;5135290;27;19911;-40
2021/06/27 04:23:08;;;;;;;;;;;;;;;17.71;73.15;101645.72;5134604;27;19947;-40
2021/06/27 04:25:35;;;;;;;;;;;;;;;17.78;73.44;101650.19;5134939;27;19907;-40
2021/06/27 04:28:01;;;;;;;;;;;;;;;17.78;73.65;101647.44;5134510;27;20219;-40
2021/06/27 04:30:26;;;;;;;;;;;;;;;17.82;73.58;101643.13;5135639;27;19907;-40
2021/06/27 04:32:51;;;;;;;;;;;;;;;17.86;73.57;101638.75;5135283;27;19911;-40
2021/06/27 04:35:16;;;;;;;;;;;;;;;17.84;73.65;101633.53;5135295;28;19914;-40
2021/06/27 04:37:42;;;;;;;;;;;;;;;17.83;73.53;101636.56;5135247;28;20239;-40
2021/06/27 04:40:07;;;;;;;;;;;;;;;17.86;73.83;101639.59;5134473;27;19907;-40
2021/06/27 04:42:33;;;;;;;;;;;;;;;17.90;72.90;101635.22;5134321;27;19973;-40
2021/06/27 04:44:59;;;;;;;;;;;;;;;17.92;73.12;101627.59;5134410;28;19907;-40
2021/06/27 04:47:25;;;;;;;;;;;;;;;17.98;72.99;101623.00;5134641;27;19913;-40
2021/06/27 04:49:50;;;;;;;;;;;;;;;17.96;73.29;101620.53;5134880;28;20002;-40
2021/06/27 04:52:15;;;;;;;;;;;;;;;17.82;74.49;101618.50;5135572;28;19911;-40
2021/06/27 04:54:40;;;;;;;;;;;;;;;17.85;73.35;101616.03;5135143;28;19922;-40
2021/06/27 04:57:06;;;;;;;;;;;;;;;17.87;73.82;101621.25;5134815;28;20353;-40
2021/06/27 04:59:31;;;;;;;;;;;;;;;17.91;74.02;101619.63;5134242;28;19907;-40
2021/06/27 05:01:56;;;;;;;;;;;;;;;17.86;74.62;101616.84;5134189;28;20282;-40
2021/06/27 05:04:22;;;;;;;;;;;;;;;17.87;73.69;101610.31;5134588;28;20362;-40
2021/06/27 05:06:47;;;;;;;;;;;;;;;17.83;74.66;101611.94;5135316;27;19914;-40
2021/06/27 05:09:12;;;;;;;;;;;;;;;17.87;74.21;101607.59;5134396;28;19907;-40
2021/06/27 05:11:37;;;;;;;;;;;;;;;17.95;74.41;101612.56;5135177;28;20327;-40
2021/06/27 05:14:02;;;;;;;;;;;;;;;18.04;73.55;101607.44;5134955;28;19955;-40
2021/06/27 05:16:28;;;;;;;;;;;;;;;18.03;73.78;101609.34;5134377;28;19987;-40
2021/06/27 05:18:53;;;;;;;;;;;;;;;17.97;74.49;101610.41;5134016;28;19911;-40
2021/06/27 05:21:18;;;;;;;;;;;;;;;18.06;73.63;101617.03;5135153;28;19968;-40
2021/06/27 05:23:43;;;;;;;;;;;;;;;18.15;73.49;101623.66;5135495;27;20248;-40
2021/06/27 05:26:09;;;;;;;;;;;;;;;18.22;73.05;101620.72;5138264;27;19960;-40
2021/06/27 05:28:34;;;;;;;;;;;;;;;18.32;72.88;101623.50;5138183;27;19953;-40
2021/06/27 05:30:59;;;;;;;;;;;;;;;18.37;73.00;101618.06;5138367;27;20362;-40
2021/06/27 05:33:24;;;;;;;;;;;;;;;18.38;72.69;101618.88;5138019;27;19907;-40
2021/06/27 05:35:50;;;;;;;;;;;;;;;18.27;72.99;101613.34;5138599;27;20236;-40
2021/06/27 05:38:15;;;;;;;;;;;;;;;18.39;72.60;101612.31;5138220;27;19907;-40
2021/06/27 05:40:40;;;;;;;;;;;;;;;18.38;72.52;101602.47;5137913;27;19959;-40
2021/06/27 05:43:05;;;;;;;;;;;;;;;18.47;72.46;101603.63;5138232;27;19930;-40
2021/06/27 05:45:31;;;;;;;;;;;;;;;18.61;72.12;101609.44;5138660;27;19915;-40
2021/06/27 05:47:56;;;;;;;;;;;;;;;18.74;72.11;101604.34;5137443;27;19996;-40
2021/06/27 05:50:21;;;;;;;;;;;;;;;18.81;72.14;101604.09;5138564;27;19908;-40
2021/06/27 05:52:47;;;;;;;;;;;;;;;18.89;71.49;101611.81;5137210;27;19947;-40
2021/06/27 05:55:12;;;;;;;;;;;;;;;18.95;71.60;101618.13;5137691;27;20418;-40
2021/06/27 05:57:37;;;;;;;;;;;;;;;19.01;71.03;101619.78;5137564;27;19915;-40
2021/06/27 06:00:04;;;;;;;;;;;;;;;19.12;70.95;101623.38;5137616;27;19965;-40
2021/06/27 06:02:29;;;;;;;;;;;;;;;19.21;71.34;101619.03;5137941;27;19950;-40
2021/06/27 06:04:54;;;;;;;;;;;;;;;19.29;70.76;101622.06;5138077;27;19946;-40
2021/06/27 06:07:19;;;;;;;;;;;;;;;19.43;70.58;101621.56;5137468;27;19908;-40
2021/06/27 06:09:45;;;;;;;;;;;;;;;19.58;70.16;101618.84;5137148;27;20262;-40
2021/06/27 06:12:10;;;;;;;;;;;;;;;19.62;69.42;101619.97;5137264;27;20338;-40
2021/06/27 06:14:35;;;;;;;;;;;;;;;19.66;69.64;101612.00;5137318;27;20002;-40
2021/06/27 06:17:00;;;;;;;;;;;;;;;19.76;69.77;101612.00;5137332;27;19908;-40
2021/06/27 06:19:26;;;;;;;;;;;;;;;19.82;68.99;101619.16;5136676;27;19907;-40
2021/06/27 06:21:51;;;;;;;;;;;;;;;19.82;68.08;101615.59;5137475;27;19928;-40
2021/06/27 06:24:17;;;;;;;;;;;;;;;19.83;68.06;101625.47;5137155;27;20223;-40
2021/06/27 06:26:43;;;;;;;;;;;;;;;19.72;68.30;101619.97;5137922;27;19907;-40
2021/06/27 06:29:08;;;;;;;;;;;;;;;19.72;68.48;101609.00;5137325;27;19908;-40
2021/06/27 06:31:33;;;;;;;;;;;;;;;19.73;68.34;101620.78;5136752;27;20379;-40
2021/06/27 06:33:59;;;;;;;;;;;;;;;19.81;68.45;101617.47;5136646;27;20009;-40
2021/06/27 06:36:24;;;;;;;;;;;;;;;19.84;68.74;101610.63;5136790;27;19908;-41
2021/06/27 06:38:49;;;;;;;;;;;;;;;19.99;68.74;101607.88;5136812;27;19954;-41
2021/06/27 06:41:16;;;;;;;;;;;;;;;20.07;68.12;101607.34;5137609;27;19907;-40
2021/06/27 06:43:42;;;;;;;;;;;;;;;20.13;67.82;101616.38;5136538;27;20343;-40
2021/06/27 06:46:07;;;;;;;;;;;;;;;20.02;67.21;101616.41;5136725;27;20002;-40
2021/06/27 06:48:32;;;;;;;;;;;;;;;20.08;67.73;101617.22;5136580;27;20007;-40
2021/06/27 06:50:57;;;;;;;;;;;;;;;20.10;67.14;101622.41;5136821;27;19911;-41
2021/06/27 06:53:22;;;;;;;;;;;;;;;20.19;67.96;101621.59;5136809;27;19996;-41
2021/06/27 06:55:48;;;;;;;;;;;;;;;20.17;66.50;101625.72;5137411;27;19912;-40
2021/06/27 06:58:13;;;;;;;;;;;;;;;20.25;67.19;101619.66;5136434;27;19918;-40
2021/06/27 07:00:38;;;;;;;;;;;;;;;20.20;67.58;101606.75;5136757;27;19907;-40
2021/06/27 07:03:04;;;;;;;;;;;;;;;20.30;67.58;101620.50;5136590;27;19930;-40
2021/06/27 07:05:29;;;;;;;;;;;;;;;20.38;67.71;101608.09;5136561;27;19907;-40
2021/06/27 07:07:54;;;;;;;;;;;;;;;20.43;66.49;101612.75;5136391;27;19907;-40
2021/06/27 07:10:19;;;;;;;;;;;;;;;20.50;66.55;101610.59;5135899;27;20354;-40
2021/06/27 07:12:45;;;;;;;;;;;;;;;20.51;67.36;101615.81;5136138;27;20299;-40
2021/06/27 07:15:11;;;;;;;;;;;;;;;20.54;67.15;101617.16;5136239;27;19914;-42
2021/06/27 07:17:37;;;;;;;;;;;;;;;20.64;66.67;101614.38;5136002;27;19911;-40
2021/06/27 07:20:03;;;;;;;;;;;;;;;20.69;66.42;101619.03;5136633;27;20346;-40
2021/06/27 07:22:28;;;;;;;;;;;;;;;20.76;66.70;101627.81;5135874;27;19930;-41
2021/06/27 07:24:53;;;;;;;;;;;;;;;20.83;66.08;101618.16;5136175;27;19907;-40
2021/06/27 07:27:19;;;;;;;;;;;;;;;20.86;66.19;101619.53;5135813;27;20260;-40
2021/06/27 07:29:44;;;;;;;;;;;;;;;20.92;66.79;101612.06;5135901;27;20307;-40
2021/06/27 07:32:09;;;;;;;;;;;;;;;20.83;66.24;101609.09;5135658;27;20323;-40
2021/06/27 07:34:34;;;;;;;;;;;;;;;20.85;66.90;101609.66;5135754;27;19907;-40
2021/06/27 07:37:03;;;;;;;;;;;;;;;20.92;66.23;101606.56;5135803;27;19907;-40
2021/06/27 07:39:28;;;;;;;;;;;;;;;21.04;67.06;101604.34;5135650;27;19908;-40
2021/06/27 07:41:53;;;;;;;;;;;;;;;21.13;66.74;101599.88;5134857;27;19912;-40
2021/06/27 07:44:18;;;;;;;;;;;;;;;21.31;66.56;101607.50;5135198;27;19914;-40
2021/06/27 07:46:43;;;;;;;;;;;;;;;21.31;66.00;101596.50;5134425;27;19998;-40
2021/06/27 07:49:09;;;;;;;;;;;;;;;21.38;66.22;101606.38;5135755;27;20001;-40
2021/06/27 07:51:34;;;;;;;;;;;;;;;21.42;66.09;101607.41;5135385;27;20380;-40
2021/06/27 07:54:00;;;;;;;;;;;;;;;21.50;65.22;101599.38;5135405;27;20402;-40
2021/06/27 07:56:25;;;;;;;;;;;;;;;21.70;65.71;101611.34;5135298;27;20361;-40
2021/06/27 07:58:50;;;;;;;;;;;;;;;21.93;65.36;101607.03;5135298;27;19907;-40
2021/06/27 08:01:15;;;;;;;;;;;;;;;21.87;64.10;101611.78;5135583;27;19929;-40
2021/06/27 08:03:40;;;;;;;;;;;;;;;21.98;63.78;101605.06;5135139;27;19912;-41
2021/06/27 08:06:06;;;;;;;;;;;;;;;21.92;64.16;101614.50;5134857;27;20400;-40
2021/06/27 08:08:31;;;;;;;;;;;;;;;21.99;64.11;101614.13;5134807;27;20362;-40
2021/06/27 08:10:56;;;;;;;;;;;;;;;22.01;64.48;101610.00;5134965;27;19998;-40
2021/06/27 08:13:21;;;;;;;;;;;;;;;22.10;63.93;101605.50;5134961;27;20005;-40
2021/06/27 08:15:47;;;;;;;;;;;;;;;22.20;63.61;101607.34;5135833;27;19949;-40
2021/06/27 08:18:12;;;;;;;;;;;;;;;22.32;63.37;101615.25;5134586;27;20051;-40
2021/06/27 08:20:37;;;;;;;;;;;;;;;22.39;63.92;101617.63;5134643;27;20019;-40
2021/06/27 08:23:02;;;;;;;;;;;;;;;22.49;64.15;101620.28;5135390;27;19912;-40
2021/06/27 08:25:28;;;;;;;;;;;;;;;22.56;61.61;101627.09;5135481;27;19914;-40
2021/06/27 08:27:53;;;;;;;;;;;;;;;22.69;62.84;101617.28;5135130;27;19958;-40
2021/06/27 08:30:19;;;;;;;;;;;;;;;22.85;63.67;101620.72;5135019;27;19912;-40
2021/06/27 08:32:46;;;;;;;;;;;;;;;23.02;63.10;101618.28;5134641;27;19911;-41
2021/06/27 08:35:15;;;;;;;;;;;;;;;23.14;62.19;101612.34;5135314;27;20287;-40
2021/06/27 08:37:41;;;;;;;;;;;;;;;23.02;62.23;101610.03;5134787;27;19915;-40
2021/06/27 08:40:07;;;;;;;;;;;;;;;23.10;62.60;101605.78;5134722;27;19976;-40
2021/06/27 08:42:33;;;;;;;;;;;;;;;23.21;61.53;101610.03;5134717;27;19914;-40
2021/06/27 08:44:58;;;;;;;;;;;;;;;23.29;61.36;101601.09;5135003;28;20236;-41
2021/06/27 08:47:24;;;;;;;;;;;;;;;23.35;62.37;101605.41;5135402;27;19908;-40
2021/06/27 08:49:50;;;;;;;;;;;;;;;23.38;61.82;101606.78;5135007;27;19914;-41
2021/06/27 08:52:17;;;;;;;;;;;;;;;23.35;59.60;101602.66;5134918;27;19980;-41
2021/06/27 08:54:42;;;;;;;;;;;;;;;23.16;61.69;101596.31;5134929;27;19939;-41
2021/06/27 08:57:08;;;;;;;;;;;;;;;23.16;61.40;101599.06;5135281;27;19911;-41
2021/06/27 08:59:33;;;;;;;;;;;;;;;23.24;61.43;101595.66;5138990;27;19918;-41
2021/06/27 09:02:00;;;;;;;;;;;;;;;23.35;61.47;101596.31;5138705;27;19907;-40
2021/06/27 09:04:25;;;;;;;;;;;;;;;23.43;60.87;101592.09;5138608;27;20382;-41
2021/06/27 09:06:50;;;;;;;;;;;;;;;23.38;60.87;101582.75;5138919;27;19911;-40
2021/06/27 09:09:17;;;;;;;;;;;;;;;23.49;60.36;101593.63;5138561;27;19907;-41
2021/06/27 09:11:58;;;;;;;;;;;;;;;23.64;60.26;101582.38;5139047;27;20243;-41
2021/06/27 09:14:28;;;;;;;;;;;;;;;23.69;60.42;101582.28;5138836;27;20018;-41
2021/06/27 09:17:08;;;;;;;;;;;;;;;23.81;60.82;101585.38;5138758;27;19922;-41
2021/06/27 09:19:55;;;;;;;;;;;;;;;23.90;60.19;101578.03;5138342;27;20052;-41
2021/06/27 09:22:25;;;;;;;;;;;;;;;24.11;57.50;101577.72;5138949;27;19942;-41
2021/06/27 09:24:50;;;;;;;;;;;;;;;24.29;58.69;101567.69;5138208;27;19907;-41
2021/06/27 09:27:17;;;;;;;;;;;;;;;24.40;59.18;101567.22;5139071;27;19914;-41
2021/06/27 09:29:42;;;;;;;;;;;;;;;24.52;57.93;101563.13;5138099;27;20263;-41
2021/06/27 09:32:14;;;;;;;;;;;;;;;24.63;57.77;101550.72;5138426;27;19907;-40
2021/06/27 09:34:43;;;;;;;;;;;;;;;24.77;56.08;101545.97;5138371;27;20011;-41
2021/06/27 09:37:08;;;;;;;;;;;;;;;25.00;56.49;101555.16;5138295;27;20415;-41
2021/06/27 09:39:34;;;;;;;;;;;;;;;25.04;55.33;101549.84;5138029;27;19907;-41
2021/06/27 09:42:03;;;;;;;;;;;;;;;24.95;55.28;101557.22;5137977;27;20410;-41
2021/06/27 09:44:29;;;;;;;;;;;;;;;24.99;56.27;101545.22;5137819;27;20418;-41
2021/06/27 09:46:54;;;;;;;;;;;;;;;25.14;56.14;101552.38;5138156;27;19950;-41
2021/06/27 09:49:26;;;;;;;;;;;;;;;25.16;56.31;101547.34;5137783;27;19940;-41
2021/06/27 09:51:55;;;;;;;;;;;;;;;25.33;56.10;101549.47;5138664;27;19918;-41
2021/06/27 09:54:21;;;;;;;;;;;;;;;25.53;54.21;101539.84;5138304;27;19914;-41
2021/06/27 09:56:47;;;;;;;;;;;;;;;25.67;53.33;101541.41;5137715;27;19911;-41
2021/06/27 09:59:17;;;;;;;;;;;;;;;25.48;53.61;101538.00;5137650;27;20002;-41
2021/06/27 10:01:42;;;;;;;;;;;;;;;25.20;52.66;101533.72;5137367;27;19914;-41
2021/06/27 10:04:09;;;;;;;;;;;;;;;25.50;54.56;101530.19;5137505;27;19907;-41
2021/06/27 10:06:35;;;;;;;;;;;;;;;25.74;53.71;101524.31;5137549;27;20339;-41
2021/06/27 10:09:08;;;;;;;;;;;;;;;25.85;54.32;101516.59;5136783;27;20350;-41
2021/06/27 10:11:33;;;;;;;;;;;;;;;26.09;52.95;101518.97;5137374;27;19956;-41
2021/06/27 10:14:04;;;;;;;;;;;;;;;26.28;52.07;101514.00;5137345;27;19911;-41
2021/06/27 10:16:31;;;;;;;;;;;;;;;26.29;52.91;101509.28;5138589;27;20002;-41
2021/06/27 10:18:57;;;;;;;;;;;;;;;26.40;52.13;101502.28;5136943;27;19908;-41
2021/06/27 10:21:22;;;;;;;;;;;;;;;26.34;52.41;101501.63;5137804;27;20353;-41
2021/06/27 10:23:48;;;;;;;;;;;;;;;26.46;52.57;101503.00;5136831;27;19929;-41
2021/06/27 10:26:15;;;;;;;;;;;;;;;26.46;50.21;101491.91;5137421;27;19918;-41
2021/06/27 10:28:40;;;;;;;;;;;;;;;26.52;50.03;101494.19;5137102;27;19907;-41
2021/06/27 10:31:06;;;;;;;;;;;;;;;26.66;48.32;101489.34;5137014;27;19959;-41
2021/06/27 10:33:32;;;;;;;;;;;;;;;26.50;49.04;101490.09;5137011;27;19914;-41
2021/06/27 10:35:58;;;;;;;;;;;;;;;26.42;48.51;101489.78;5137818;27;20412;-41
2021/06/27 10:38:26;;;;;;;;;;;;;;;26.46;49.38;101483.59;5136578;27;19911;-41
2021/06/27 10:40:52;;;;;;;;;;;;;;;26.70;49.46;101481.19;5136644;27;19908;-41
2021/06/27 10:43:17;;;;;;;;;;;;;;;26.87;48.51;101483.97;5136816;27;19908;-41
2021/06/27 10:45:46;;;;;;;;;;;;;;;26.83;47.78;101479.38;5136790;27;19918;-41
2021/06/27 10:48:29;;;;;;;;;;;;;;;26.91;48.78;101482.16;5136636;27;19915;-41
2021/06/27 10:50:55;;;;;;;;;;;;;;;26.52;48.75;101479.53;5137052;27;19914;-41
2021/06/27 10:53:20;;;;;;;;;;;;;;;26.53;49.15;101476.41;5137257;27;19912;-41
2021/06/27 10:55:45;;;;;;;;;;;;;;;26.36;48.14;101471.63;5137201;27;19911;-41
2021/06/27 10:58:14;;;;;;;;;;;;;;;26.62;49.53;101476.44;5137313;27;20290;-41
2021/06/27 11:00:59;;;;;;;;;;;;;;;26.83;49.42;101471.88;5137273;27;19907;-41
2021/06/27 11:03:27;;;;;;;;;;;;;;;26.91;48.35;101470.25;5136998;27;20001;-41
2021/06/27 11:05:56;;;;;;;;;;;;;;;26.91;47.41;101467.47;5136340;27;19907;-41
2021/06/27 11:08:32;;;;;;;;;;;;;;;26.71;47.13;101477.25;5136303;27;20044;-41
2021/06/27 11:11:02;;;;;;;;;;;;;;;26.70;46.55;101470.91;5136153;27;19907;-41
2021/06/27 11:13:27;;;;;;;;;;;;;;;26.81;48.27;101463.06;5137281;27;19907;-41
2021/06/27 11:15:53;;;;;;;;;;;;;;;26.96;48.50;101467.31;5136474;27;20367;-41
2021/06/27 11:18:36;;;;;;;;;;;;;;;26.78;48.87;101457.34;5136591;27;19952;-41
2021/06/27 11:21:03;;;;;;;;;;;;;;;26.68;48.97;101459.28;5136295;27;20303;-41
2021/06/27 11:23:47;;;;;;;;;;;;;;;26.83;49.65;101454.41;5135511;27;20386;-41
2021/06/27 11:26:35;;;;;;;;;;;;;;;26.96;49.34;101459.81;5136589;27;19949;-41
2021/06/27 11:29:01;;;;;;;;;;;;;;;26.86;46.56;101453.78;5124851;27;19907;-41
2021/06/27 11:31:27;;;;;;;;;;;;;;;27.03;49.09;101458.47;5136126;27;20347;-41
2021/06/27 11:34:11;;;;;;;;;;;;;;;26.96;48.68;101454.25;5135497;27;19907;-41
2021/06/27 11:36:36;;;;;;;;;;;;;;;27.17;48.82;101443.31;5136269;27;19907;-41
2021/06/27 11:39:01;;;;;;;;;;;;;;;27.40;48.95;101452.25;5135745;27;20362;-41
2021/06/27 11:41:37;;;;;;;;;;;;;;;27.11;45.21;101439.09;5135346;27;20270;-41
2021/06/27 11:44:14;;;;;;;;;;;;;;;27.12;46.87;101445.44;5136075;27;20362;-41
2021/06/27 11:46:42;;;;;;;;;;;;;;;27.33;46.77;101440.84;5136410;27;19907;-41
2021/06/27 11:49:11;;;;;;;;;;;;;;;27.30;47.14;101447.06;5135236;27;20004;-41
2021/06/27 11:51:46;;;;;;;;;;;;;;;27.27;49.07;101444.94;5136390;27;19954;-41
2021/06/27 11:54:15;;;;;;;;;;;;;;;27.39;48.41;101439.53;5135770;27;19915;-41
2021/06/27 11:56:59;;;;;;;;;;;;;;;27.55;46.83;101439.00;5135735;27;20002;-41
2021/06/27 11:59:26;;;;;;;;;;;;;;;27.56;47.19;101443.38;5136042;27;19907;-41
2021/06/27 12:02:04;;;;;;;;;;;;;;;27.61;47.89;101437.66;5135365;27;19921;-41
2021/06/27 12:04:49;;;;;;;;;;;;;;;27.33;47.07;101440.84;5135251;27;19908;-41
2021/06/27 12:07:42;;;;;;;;;;;;;;;27.30;47.85;101437.91;5135794;27;19908;-41
2021/06/27 12:10:20;;;;;;;;;;;;;;;27.26;46.49;101437.75;5052424;28;19951;-41
2021/06/27 12:12:49;;;;;;;;;;;;;;;27.36;45.60;101444.91;5051859;28;19939;-41
2021/06/27 12:15:14;;;;;;;;;;;;;;;27.42;46.60;101449.16;5052385;28;20325;-41
2021/06/27 12:17:43;;;;;;;;;;;;;;;27.48;44.99;101439.50;5051604;28;19959;-41
2021/06/27 12:20:09;;;;;;;;;;;;;;;27.46;45.40;101439.00;5051970;28;19909;-40
2021/06/27 12:22:53;;;;;;;;;;;;;;;27.53;45.22;101432.97;5051969;28;20237;-41
2021/06/27 12:25:29;;;;;;;;;;;;;;;27.37;45.72;101436.25;5051421;28;19909;-41
2021/06/27 12:27:55;;;;;;;;;;;;;;;27.33;45.97;101435.31;5052087;28;19909;-41
2021/06/27 12:30:35;;;;;;;;;;;;;;;27.36;47.07;101429.06;5051846;28;20084;-40
2021/06/27 12:33:01;;;;;;;;;;;;;;;27.35;45.43;101430.22;5051031;28;20408;-40